createdAt,value
2022-08-05T00:00:19.970Z,21.76
2022-08-05T00:02:51.809Z,21.25
2022-08-05T00:06:01.859Z,21.38
2022-08-05T00:08:34.773Z,21.74
2022-08-05T00:11:00.986Z,21.92
2022-08-05T00:13:39.064Z,21.60
2022-08-05T00:16:08.851Z,21.30
2022-08-05T00:18:37.941Z,21.25
2022-08-05T00:21:06.452Z,21.65
2022-08-05T00:23:46.489Z,21.21
2022-08-05T00:26:20.592Z,21.34
2022-08-05T00:28:47.377Z,20.85
2022-08-05T00:31:16.445Z,21.32
2022-08-05T00:34:54.892Z,21.65
2022-08-05T00:37:09.839Z,21.88
2022-08-05T00:39:44.021Z,21.85
2022-08-05T00:42:11.515Z,21.94
2022-08-05T00:44:58.474Z,21.83
2022-08-05T00:47:26.557Z,22.01
2022-08-05T00:50:13.449Z,22.02
2022-08-05T00:52:40.426Z,22.07
2022-08-05T00:55:07.589Z,22.09
2022-08-05T00:57:55.568Z,22.03
2022-08-05T01:00:21.950Z,22.00
2022-08-05T01:02:52.617Z,22.07
2022-08-05T01:05:20.159Z,21.91
2022-08-05T01:08:41.334Z,21.79
2022-08-05T01:10:56.556Z,22.01
2022-08-05T01:13:57.752Z,22.13
2022-08-05T01:16:26.300Z,22.12
2022-08-05T01:18:58.132Z,22.25
2022-08-05T01:21:55.851Z,22.22
2022-08-05T01:24:39.263Z,22.23
2022-08-05T01:27:17.741Z,22.35
2022-08-05T01:29:50.242Z,22.20
2022-08-05T01:32:22.460Z,22.32
2022-08-05T01:34:58.690Z,22.20
2022-08-05T01:37:45.990Z,22.39
2022-08-05T01:40:17.923Z,22.42
2022-08-05T01:42:46.539Z,21.79
2022-08-05T01:45:16.466Z,21.68
2022-08-05T01:47:46.503Z,21.65
2022-08-05T01:50:28.596Z,21.64
2022-08-05T01:53:01.607Z,21.65
2022-08-05T01:55:32.549Z,21.63
2022-08-05T01:58:10.383Z,21.69
2022-08-05T02:00:45.448Z,21.63
2022-08-05T02:03:28.917Z,21.47
2022-08-05T02:06:03.364Z,21.53
2022-08-05T02:08:32.644Z,21.59
2022-08-05T02:11:07.804Z,21.54
2022-08-05T02:13:54.098Z,21.37
2022-08-05T02:16:39.203Z,21.38
2022-08-05T02:19:17.692Z,21.33
2022-08-05T02:21:52.870Z,21.22
2022-08-05T02:24:23.543Z,21.14
2022-08-05T02:26:58.763Z,21.22
2022-08-05T02:30:00.015Z,21.29
2022-08-05T02:32:23.934Z,21.29
2022-08-05T02:35:13.745Z,21.34
2022-08-05T02:37:47.802Z,21.37
2022-08-05T02:40:23.051Z,21.16
2022-08-05T02:42:54.194Z,21.14
2022-08-05T02:45:23.861Z,21.12
2022-08-05T02:48:11.441Z,21.17
2022-08-05T02:50:45.986Z,21.09
2022-08-05T02:53:16.143Z,21.11
2022-08-05T02:56:00.027Z,21.12
2022-08-05T02:58:30.231Z,20.87
2022-08-05T03:01:00.870Z,21.08
2022-08-05T03:03:33.823Z,21.03
2022-08-05T03:06:57.253Z,21.06
2022-08-05T03:09:05.170Z,21.09
2022-08-05T03:11:57.851Z,21.06
2022-08-05T03:14:22.216Z,21.11
2022-08-05T03:16:49.270Z,21.11
2022-08-05T03:19:34.610Z,21.04
2022-08-05T03:22:05.125Z,21.09
2022-08-05T03:24:46.951Z,21.03
2022-08-05T03:27:14.436Z,20.99
2022-08-05T03:29:44.864Z,20.82
2022-08-05T03:32:31.053Z,20.36
2022-08-05T03:34:59.752Z,20.44
2022-08-05T03:37:27.791Z,20.64
2022-08-05T03:40:01.811Z,20.67
2022-08-05T03:42:32.426Z,20.53
2022-08-05T03:45:22.041Z,20.64
2022-08-05T03:47:51.223Z,20.63
2022-08-05T03:50:18.475Z,20.57
2022-08-05T03:55:00.349Z,20.63
2022-08-05T03:56:09.979Z,20.65
2022-08-05T03:58:46.796Z,20.67
2022-08-05T04:01:16.395Z,20.73
2022-08-05T04:04:05.377Z,20.67
2022-08-05T04:06:37.691Z,20.77
2022-08-05T04:09:06.255Z,20.64
2022-08-05T04:11:47.602Z,20.80
2022-08-05T04:14:19.588Z,20.82
2022-08-05T04:16:58.597Z,20.62
2022-08-05T04:19:25.765Z,20.71
2022-08-05T04:22:09.390Z,20.77
2022-08-05T04:24:52.658Z,21.06
2022-08-05T04:27:33.240Z,21.17
2022-08-05T04:30:08.638Z,21.38
2022-08-05T04:32:36.575Z,21.40
2022-08-05T04:35:05.053Z,21.04
2022-08-05T04:38:02.089Z,21.00
2022-08-05T04:40:20.117Z,20.95
2022-08-05T04:42:46.952Z,20.93
2022-08-05T04:45:22.965Z,21.00
2022-08-05T04:48:18.488Z,21.02
2022-08-05T04:51:01.666Z,20.90
2022-08-05T04:53:33.556Z,20.94
2022-08-05T04:56:33.808Z,20.90
2022-08-05T04:58:50.136Z,20.85
2022-08-05T05:01:33.730Z,20.84
2022-08-05T05:04:04.885Z,20.37
2022-08-05T05:06:36.178Z,20.45
2022-08-05T05:09:08.144Z,20.51
2022-08-05T05:11:52.846Z,20.60
2022-08-05T05:14:27.574Z,20.57
2022-08-05T05:17:03.274Z,20.72
2022-08-05T05:19:37.207Z,20.82
2022-08-05T05:22:23.943Z,20.81
2022-08-05T05:24:59.792Z,20.81
2022-08-05T05:27:44.458Z,20.70
2022-08-05T05:30:30.616Z,20.71
2022-08-05T05:33:08.791Z,20.78
2022-08-05T05:35:47.455Z,20.70
2022-08-05T05:38:22.671Z,20.70
2022-08-05T05:40:56.061Z,20.93
2022-08-05T05:43:57.396Z,21.02
2022-08-05T05:46:17.855Z,21.00
2022-08-05T05:48:46.099Z,21.05
2022-08-05T05:51:25.536Z,20.98
2022-08-05T05:53:58.770Z,20.92
2022-08-05T05:56:32.675Z,21.00
2022-08-05T05:59:05.717Z,21.10
2022-08-05T06:01:36.951Z,21.04
2022-08-05T06:04:07.560Z,20.97
2022-08-05T06:06:35.996Z,20.88
2022-08-05T06:09:05.389Z,20.91
2022-08-05T06:11:33.198Z,20.91
2022-08-05T06:14:00.978Z,20.92
2022-08-05T06:16:36.740Z,21.08
2022-08-05T06:19:07.436Z,21.24
2022-08-05T06:21:38.811Z,21.20
2022-08-05T06:24:09.963Z,20.90
2022-08-05T06:26:52.314Z,21.00
2022-08-05T06:29:25.443Z,21.10
2022-08-05T06:32:20.950Z,21.17
2022-08-05T06:34:48.536Z,21.24
2022-08-05T06:37:56.842Z,21.17
2022-08-05T06:40:08.020Z,21.41
2022-08-05T06:42:34.901Z,21.32
2022-08-05T06:45:05.588Z,21.47
2022-08-05T06:48:36.498Z,21.51
2022-08-05T06:50:24.956Z,21.78
2022-08-05T06:53:03.748Z,21.92
2022-08-05T06:55:38.606Z,22.06
2022-08-05T06:58:19.953Z,22.19
2022-08-05T07:01:01.165Z,22.11
2022-08-05T07:03:32.747Z,22.26
2022-08-05T07:06:06.187Z,22.91
2022-08-05T07:08:47.892Z,23.05
2022-08-05T07:11:21.892Z,23.15
2022-08-05T07:14:20.276Z,23.28
2022-08-05T07:18:08.485Z,23.71
2022-08-05T07:22:35.619Z,23.64
2022-08-05T07:25:22.662Z,23.73
2022-08-05T07:27:58.720Z,24.00
2022-08-05T07:30:38.922Z,24.22
2022-08-05T07:33:16.479Z,23.60
2022-08-05T07:36:04.715Z,23.60
2022-08-05T07:38:42.660Z,24.07
2022-08-05T07:42:07.927Z,24.20
2022-08-05T07:44:06.634Z,24.38
2022-08-05T07:46:41.486Z,24.47
2022-08-05T07:49:15.257Z,24.62
2022-08-05T07:51:53.828Z,24.56
2022-08-05T07:54:30.315Z,23.88
2022-08-05T07:57:13.831Z,24.73
2022-08-05T07:59:46.957Z,24.34
2022-08-05T08:02:17.626Z,24.84
2022-08-05T08:04:49.448Z,24.86
2022-08-05T08:07:22.863Z,25.07
2022-08-05T08:09:52.717Z,24.90
2022-08-05T08:12:37.082Z,25.10
2022-08-05T08:15:15.233Z,25.09
2022-08-05T08:17:52.713Z,25.70
2022-08-05T08:20:59.896Z,25.98
2022-08-05T08:24:00.044Z,26.47
2022-08-05T08:25:59.691Z,25.39
2022-08-05T08:28:35.557Z,25.58
2022-08-05T08:31:07.001Z,25.40
2022-08-05T08:33:37.464Z,25.74
2022-08-05T08:36:38.778Z,26.03
2022-08-05T08:38:55.320Z,26.05
2022-08-05T08:41:26.270Z,25.73
2022-08-05T08:45:23.562Z,25.25
2022-08-05T08:46:59.017Z,23.99
2022-08-05T08:50:22.803Z,23.61
2022-08-05T08:52:23.258Z,23.79
2022-08-05T08:54:54.591Z,23.80
2022-08-05T08:57:25.482Z,24.14
2022-08-05T09:00:10.071Z,24.28
2022-08-05T09:02:37.443Z,23.94
2022-08-05T09:05:16.936Z,24.47
2022-08-05T09:07:57.682Z,24.52
2022-08-05T09:10:29.712Z,24.88
2022-08-05T09:12:57.263Z,24.60
2022-08-05T09:15:26.757Z,24.68
2022-08-05T09:17:57.534Z,24.18
2022-08-05T09:20:37.635Z,24.38
2022-08-05T09:23:18.794Z,23.16
2022-08-05T09:26:01.457Z,23.08
2022-08-05T09:28:33.455Z,23.09
2022-08-05T09:31:22.299Z,23.46
2022-08-05T09:33:56.188Z,23.77
2022-08-05T09:36:27.711Z,23.84
2022-08-05T09:39:17.952Z,23.60
2022-08-05T09:42:00.234Z,23.01
2022-08-05T09:44:36.557Z,23.40
2022-08-05T09:47:15.839Z,23.27
2022-08-05T09:50:00.599Z,23.33
2022-08-05T09:52:34.864Z,23.15
2022-08-05T09:55:55.147Z,22.62
2022-08-05T09:57:54.831Z,22.63
2022-08-05T10:00:26.025Z,23.33
2022-08-05T10:02:54.856Z,23.86
2022-08-05T10:05:27.926Z,23.21
2022-08-05T10:08:34.770Z,23.59
2022-08-05T10:10:54.077Z,23.33
2022-08-05T10:13:47.586Z,24.31
2022-08-05T10:16:37.929Z,23.53
2022-08-05T10:19:23.668Z,23.53
2022-08-05T10:21:59.378Z,23.88
2022-08-05T10:24:27.381Z,23.73
2022-08-05T10:27:00.652Z,24.84
2022-08-05T10:30:07.164Z,24.55
2022-08-05T10:32:52.338Z,24.61
2022-08-05T10:35:04.265Z,24.54
2022-08-05T10:37:40.461Z,24.26
2022-08-05T10:40:22.508Z,24.30
2022-08-05T10:43:04.893Z,24.61
2022-08-05T10:45:40.117Z,24.84
2022-08-05T10:48:36.082Z,24.47
2022-08-05T10:51:22.313Z,24.89
2022-08-05T10:53:55.854Z,24.48
2022-08-05T10:56:28.236Z,25.20
2022-08-05T10:58:55.759Z,24.32
2022-08-05T11:01:54.609Z,24.96
2022-08-05T11:04:28.055Z,24.91
2022-08-05T11:06:58.138Z,24.63
2022-08-05T11:09:32.405Z,24.47
2022-08-05T11:12:24.501Z,24.23
2022-08-05T11:15:19.363Z,25.16
2022-08-05T11:18:09.459Z,24.42
2022-08-05T11:20:46.154Z,24.48
2022-08-05T11:24:05.470Z,24.63
2022-08-05T11:26:32.463Z,24.48
2022-08-05T11:29:12.052Z,24.72
2022-08-05T11:31:56.271Z,24.53
2022-08-05T11:34:37.706Z,24.88
2022-08-05T11:38:14.298Z,24.14
2022-08-05T11:40:00.858Z,23.76
2022-08-05T11:42:37.929Z,22.95
2022-08-05T11:45:14.194Z,23.19
2022-08-05T11:47:54.428Z,23.71
2022-08-05T11:50:22.339Z,23.45
2022-08-05T11:52:52.089Z,24.07
2022-08-05T11:55:21.416Z,24.16
2022-08-05T11:58:09.811Z,23.65
2022-08-05T12:00:39.089Z,23.84
2022-08-05T12:03:28.625Z,23.81
2022-08-05T12:06:01.010Z,23.83
2022-08-05T12:08:27.911Z,24.20
2022-08-05T12:10:59.476Z,23.78
2022-08-05T12:13:49.585Z,23.15
2022-08-05T12:16:25.662Z,23.14
2022-08-05T12:18:55.274Z,24.24
2022-08-05T12:21:33.994Z,23.95
2022-08-05T12:24:06.919Z,23.67
2022-08-05T12:26:39.536Z,23.92
2022-08-05T12:29:17.917Z,24.30
2022-08-05T12:31:53.628Z,24.29
2022-08-05T12:34:24.037Z,24.38
2022-08-05T12:36:53.750Z,23.84
2022-08-05T12:39:22.102Z,23.96
2022-08-05T12:41:50.710Z,23.66
2022-08-05T12:44:33.141Z,24.04
2022-08-05T12:47:02.067Z,23.89
2022-08-05T12:50:03.538Z,23.28
2022-08-05T12:52:38.891Z,24.06
2022-08-05T12:55:18.137Z,24.37
2022-08-05T12:58:52.493Z,24.49
2022-08-05T13:02:00.627Z,24.43
2022-08-05T13:03:32.367Z,23.81
2022-08-05T13:06:01.561Z,24.22
2022-08-05T13:08:32.358Z,24.57
2022-08-05T13:11:04.391Z,24.34
2022-08-05T13:14:05.886Z,23.64
2022-08-05T13:16:20.239Z,23.15
2022-08-05T13:18:52.218Z,23.35
2022-08-05T13:21:22.363Z,22.95
2022-08-05T13:23:55.051Z,23.34
2022-08-05T13:26:29.963Z,22.89
2022-08-05T13:28:58.981Z,22.41
2022-08-05T13:32:02.872Z,22.02
2022-08-05T13:34:22.240Z,22.23
2022-08-05T13:36:53.232Z,23.00
2022-08-05T13:40:13.917Z,23.45
2022-08-05T13:42:07.672Z,22.62
2022-08-05T13:44:46.301Z,22.57
2022-08-05T13:47:35.200Z,22.19
2022-08-05T13:50:08.130Z,23.34
2022-08-05T13:52:38.270Z,22.98
2022-08-05T13:55:07.614Z,22.42
2022-08-05T13:57:50.620Z,22.27
2022-08-05T14:00:26.968Z,22.31
2022-08-05T14:02:56.994Z,22.75
2022-08-05T14:05:48.437Z,22.01
2022-08-05T14:08:21.048Z,21.70
2022-08-05T14:10:54.421Z,21.46
2022-08-05T14:13:34.935Z,21.48
2022-08-05T14:16:08.566Z,21.61
2022-08-05T14:18:38.099Z,21.25
2022-08-05T14:22:07.715Z,21.50
2022-08-05T14:23:51.808Z,21.63
2022-08-05T14:26:36.775Z,23.11
2022-08-05T14:29:06.101Z,23.84
2022-08-05T14:32:02.558Z,24.12
2022-08-05T14:34:35.276Z,24.02
2022-08-05T14:37:04.738Z,22.80
2022-08-05T14:39:49.664Z,23.41
2022-08-05T14:42:21.294Z,23.62
2022-08-05T14:44:56.697Z,23.28
2022-08-05T14:48:02.588Z,23.19
2022-08-05T14:50:17.767Z,23.37
2022-08-05T14:52:53.200Z,24.06
2022-08-05T14:55:24.619Z,24.37
2022-08-05T14:57:56.171Z,24.15
2022-08-05T15:00:27.691Z,25.24
2022-08-05T15:02:55.624Z,25.37
2022-08-05T15:05:29.896Z,25.65
2022-08-05T15:08:06.402Z,25.64
2022-08-05T15:10:43.396Z,26.20
2022-08-05T15:13:13.365Z,25.37
2022-08-05T15:15:55.018Z,25.02
2022-08-05T15:18:23.429Z,25.29
2022-08-05T15:20:50.936Z,25.34
2022-08-05T15:23:17.870Z,25.08
2022-08-05T15:25:52.646Z,25.11
2022-08-05T15:28:27.376Z,25.01
2022-08-05T15:30:55.283Z,25.57
2022-08-05T15:34:05.813Z,25.85
2022-08-05T15:36:16.814Z,25.45
2022-08-05T15:38:50.799Z,25.82
2022-08-05T15:41:57.669Z,25.48
2022-08-05T15:44:24.585Z,25.19
2022-08-05T15:46:52.921Z,25.94
2022-08-05T15:49:41.845Z,25.12
2022-08-05T15:52:29.012Z,25.26
2022-08-05T15:54:56.593Z,23.99
2022-08-05T15:57:23.681Z,24.75
2022-08-05T15:59:55.202Z,25.65
2022-08-05T16:02:25.520Z,25.32
2022-08-05T16:04:55.349Z,25.25
2022-08-05T16:07:22.917Z,24.74
2022-08-05T16:09:50.039Z,24.92
2022-08-05T16:12:17.864Z,24.14
2022-08-05T16:14:46.946Z,24.25
2022-08-05T16:17:14.093Z,24.06
2022-08-05T16:20:05.130Z,24.13
2022-08-05T16:22:33.878Z,24.35
2022-08-05T16:25:05.270Z,24.86
2022-08-05T16:28:00.152Z,24.49
2022-08-05T16:30:26.606Z,23.80
2022-08-05T16:32:55.623Z,23.81
2022-08-05T16:35:27.825Z,24.69
2022-08-05T16:38:15.258Z,24.72
2022-08-05T16:40:48.044Z,24.47
2022-08-05T16:43:25.156Z,24.30
2022-08-05T16:46:04.728Z,24.41
2022-08-05T16:48:39.762Z,24.42
2022-08-05T16:51:09.120Z,24.43
2022-08-05T16:54:06.202Z,24.23
2022-08-05T16:56:33.802Z,24.23
2022-08-05T16:59:07.595Z,23.97
2022-08-05T17:01:52.694Z,23.59
2022-08-05T17:04:21.416Z,23.98
2022-08-05T17:06:53.540Z,23.05
2022-08-05T17:09:20.857Z,23.56
2022-08-05T17:11:50.835Z,23.02
2022-08-05T17:14:22.382Z,23.48
2022-08-05T17:17:02.597Z,24.27
2022-08-05T17:19:29.700Z,23.91
2022-08-05T17:21:57.414Z,23.77
2022-08-05T17:24:35.034Z,23.55
2022-08-05T17:27:06.275Z,23.56
2022-08-05T17:29:40.938Z,24.33
2022-08-05T17:32:11.819Z,23.87
2022-08-05T17:34:44.107Z,24.82
2022-08-05T17:37:39.867Z,25.23
2022-08-05T17:40:00.264Z,24.85
2022-08-05T17:42:31.968Z,25.04
2022-08-05T17:45:18.160Z,24.85
2022-08-05T17:47:53.887Z,24.31
2022-08-05T17:50:28.299Z,23.76
2022-08-05T17:53:01.357Z,24.80
2022-08-05T17:55:38.201Z,25.20
2022-08-05T17:58:13.414Z,24.91
2022-08-05T18:00:45.323Z,24.92
2022-08-05T18:06:05.892Z,23.74
2022-08-05T18:08:38.563Z,23.10
2022-08-05T18:11:07.637Z,22.86
2022-08-05T18:13:44.185Z,22.64
2022-08-05T18:16:13.629Z,22.44
2022-08-05T18:18:41.484Z,21.27
2022-08-05T18:21:21.349Z,21.37
2022-08-05T18:23:53.657Z,21.79
2022-08-05T18:26:29.202Z,21.85
2022-08-05T18:28:57.787Z,21.76
2022-08-05T18:31:25.775Z,21.08
2022-08-05T18:34:00.279Z,21.80
2022-08-05T18:36:28.124Z,21.85
2022-08-05T18:38:55.807Z,21.49
2022-08-05T18:41:57.704Z,21.50
2022-08-05T18:44:10.819Z,21.46
2022-08-05T18:46:41.074Z,21.08
2022-08-05T18:49:30.576Z,21.39
2022-08-05T18:52:32.743Z,20.97
2022-08-05T18:55:00.963Z,20.82
2022-08-05T18:57:27.985Z,20.97
2022-08-05T19:00:20.496Z,21.17
2022-08-05T19:02:48.383Z,21.02
2022-08-05T19:06:12.227Z,21.03
2022-08-05T19:08:07.086Z,21.01
2022-08-05T19:10:40.742Z,20.85
2022-08-05T19:13:07.637Z,20.64
2022-08-05T19:15:58.927Z,20.69
2022-08-05T19:18:26.497Z,20.65
2022-08-05T19:20:54.556Z,20.55
2022-08-05T19:24:06.563Z,20.43
2022-08-05T19:26:09.719Z,20.35
2022-08-05T19:28:43.223Z,20.31
2022-08-05T19:31:18.000Z,20.17
2022-08-05T19:33:56.559Z,20.05
2022-08-05T19:36:25.381Z,20.03
2022-08-05T19:38:54.796Z,19.99
2022-08-05T19:41:58.107Z,19.86
2022-08-05T19:44:14.122Z,19.56
2022-08-05T19:46:43.653Z,19.58
2022-08-05T19:49:16.388Z,19.61
2022-08-05T19:52:09.021Z,19.57
2022-08-05T19:54:34.276Z,19.59
2022-08-05T19:57:06.294Z,19.39
2022-08-05T19:59:55.137Z,19.34
2022-08-05T20:02:22.577Z,19.49
2022-08-05T20:04:50.068Z,19.36
2022-08-05T20:07:46.744Z,19.42
2022-08-05T20:10:13.945Z,19.29
2022-08-05T20:12:46.226Z,19.14
2022-08-05T20:15:48.366Z,19.30
2022-08-05T20:18:10.936Z,19.19
2022-08-05T20:20:56.763Z,19.05
2022-08-05T20:23:40.306Z,19.09
2022-08-05T20:26:16.391Z,18.84
2022-08-05T20:28:46.063Z,18.84
2022-08-05T20:31:14.086Z,18.99
2022-08-05T20:33:44.832Z,18.94
2022-08-05T20:36:12.297Z,19.00
2022-08-05T20:38:53.430Z,18.98
2022-08-05T20:41:23.973Z,18.92
2022-08-05T20:43:59.876Z,19.12
2022-08-05T20:46:30.114Z,19.11
2022-08-05T20:48:57.044Z,19.02
2022-08-05T20:51:23.846Z,19.20
2022-08-05T20:53:56.977Z,19.16
2022-08-05T20:56:31.867Z,19.12
2022-08-05T20:59:14.245Z,18.94
2022-08-05T21:01:46.049Z,18.95
2022-08-05T21:04:14.000Z,18.96
2022-08-05T21:06:45.331Z,18.68
2022-08-05T21:09:14.546Z,18.68
2022-08-05T21:12:10.320Z,18.71
2022-08-05T21:14:34.592Z,18.45
2022-08-05T21:17:06.032Z,18.45
2022-08-05T21:19:47.312Z,18.65
2022-08-05T21:22:18.582Z,18.58
2022-08-05T21:24:51.668Z,18.26
2022-08-05T21:27:18.882Z,18.16
2022-08-05T21:29:48.483Z,17.75
2022-08-05T21:32:20.155Z,17.76
2022-08-05T21:34:56.065Z,17.26
2022-08-05T21:37:35.061Z,17.10
2022-08-05T21:40:13.187Z,17.28
2022-08-05T21:42:44.030Z,17.39
2022-08-05T21:45:24.767Z,17.36
2022-08-05T21:47:56.192Z,17.44
2022-08-05T21:50:25.977Z,17.32
2022-08-05T21:52:53.385Z,17.17
2022-08-05T21:56:01.418Z,17.11
2022-08-05T21:58:07.966Z,17.17
2022-08-05T22:00:38.698Z,16.98
2022-08-05T22:03:07.592Z,16.86
2022-08-05T22:05:48.719Z,16.96
2022-08-05T22:08:22.150Z,17.01
2022-08-05T22:10:51.560Z,16.76
2022-08-05T22:14:19.360Z,16.84
2022-08-05T22:16:15.725Z,16.67
2022-08-05T22:18:52.840Z,16.40
2022-08-05T22:21:20.097Z,16.46
2022-08-05T22:24:12.900Z,16.44
2022-08-05T22:26:58.839Z,16.66
2022-08-05T22:29:30.489Z,16.83
2022-08-05T22:32:03.220Z,16.80
2022-08-05T22:34:31.745Z,16.80
2022-08-05T22:36:59.222Z,16.77
2022-08-05T22:39:31.104Z,16.67
2022-08-05T22:42:09.591Z,16.69
2022-08-05T22:44:38.848Z,16.90
2022-08-05T22:47:06.606Z,16.79
2022-08-05T22:50:21.040Z,16.81
2022-08-05T22:52:30.392Z,16.77
2022-08-05T22:54:59.860Z,16.83
2022-08-05T22:57:26.983Z,16.80
2022-08-05T23:00:01.128Z,16.73
2022-08-05T23:02:33.183Z,16.66
2022-08-05T23:05:01.933Z,16.71
2022-08-05T23:07:32.644Z,16.52
2022-08-05T23:10:10.857Z,16.54
2022-08-05T23:12:37.746Z,16.25
2022-08-05T23:15:08.674Z,16.52
2022-08-05T23:17:37.975Z,16.51
2022-08-05T23:20:24.367Z,16.52
2022-08-05T23:22:55.653Z,16.61
2022-08-05T23:25:53.689Z,16.48
2022-08-05T23:28:11.953Z,16.18
2022-08-05T23:30:43.808Z,16.09
2022-08-05T23:33:22.245Z,16.11
2022-08-05T23:35:56.224Z,16.13
2022-08-05T23:38:24.522Z,16.15
2022-08-05T23:40:52.797Z,16.17
2022-08-05T23:43:25.369Z,16.35
2022-08-05T23:46:19.749Z,16.27
2022-08-05T23:49:00.973Z,16.24
2022-08-05T23:51:55.353Z,16.13
2022-08-05T23:54:30.463Z,16.44
2022-08-05T23:57:03.994Z,16.39
